Time;durP1;ratioP1;P1;durP2;ratioP2;P2;SDS_P1;SDS_P2;PMS_P1;PMS_P2;Temp;Humidity;BMP_temperature;BMP_pressure;BME280_temperature;BME280_humidity;BME280_pressure;Samples;Min_cycle;Max_cycle;Signal;HPM_P1;HPM_P2
2023/12/13 00:02:29;;;;;;;29.20;16.70;;;;;;;;;;103649;1295;545363;-78
2023/12/13 00:06:06;;;;;;;32.20;18.20;;;;;;;;;;104103;1286;545053;-75
2023/12/13 00:09:44;;;;;;;41.10;20.90;;;;;;;;;;103788;1294;545066;-74
2023/12/13 00:13:21;;;;;;;43.50;20.90;;;;;;;;;;103792;1289;545011;-72
2023/12/13 00:16:59;;;;;;;44.20;21.00;;;;;;;;;;103809;1292;544846;-75
2023/12/13 00:20:36;;;;;;;39.10;19.50;;;;;;;;;;104515;1285;544959;-71
2023/12/13 00:24:14;;;;;;;35.10;19.00;;;;;;;;;;103712;1292;544801;-73
2023/12/13 00:27:51;;;;;;;32.60;17.70;;;;;;;;;;103877;1289;544888;-73
2023/12/13 00:31:29;;;;;;;32.40;16.40;;;;;;;;;;103584;1294;545518;-77
2023/12/13 00:35:25;;;;;;;30.80;15.50;;;;;;;;;;103893;1291;549368;-71
2023/12/13 00:38:43;;;;;;;34.80;17.40;;;;;;;;;;103747;1292;544740;-75
2023/12/13 00:42:21;;;;;;;32.40;15.70;;;;;;;;;;103831;1289;544922;-78
2023/12/13 00:45:59;;;;;;;30.90;15.20;;;;;;;;;;103768;1290;544930;-76
2023/12/13 00:49:36;;;;;;;28.60;14.20;;;;;;;;;;103599;1294;545704;-75
2023/12/13 00:53:14;;;;;;;31.70;16.20;;;;;;;;;;103564;1293;544877;-72
2023/12/13 00:56:51;;;;;;;27.60;17.00;;;;;;;;;;103935;1289;545067;-72
2023/12/13 01:00:29;;;;;;;27.70;15.10;;;;;;;;;;104108;1287;545427;-79
2023/12/13 01:04:06;;;;;;;29.80;15.20;;;;;;;;;;103645;1296;545265;-72
2023/12/13 01:07:43;;;;;;;24.60;12.60;;;;;;;;;;104146;1287;544766;-71
2023/12/13 01:11:23;;;;;;;22.80;10.90;;;;;;;;;;103941;1292;544779;-72
2023/12/13 01:14:58;;;;;;;19.70;9.50;;;;;;;;;;103819;1292;545098;-74
2023/12/13 01:18:36;;;;;;;21.90;10.60;;;;;;;;;;103801;1289;544927;-73
2023/12/13 01:22:13;;;;;;;27.30;13.00;;;;;;;;;;103699;1291;545054;-79
2023/12/13 01:25:50;;;;;;;27.40;12.00;;;;;;;;;;103773;1295;545242;-73
2023/12/13 01:29:29;;;;;;;25.50;10.70;;;;;;;;;;103822;1289;546072;-78
2023/12/13 01:33:05;;;;;;;24.90;11.10;;;;;;;;;;103587;1295;544779;-72
2023/12/13 01:36:43;;;;;;;25.40;11.60;;;;;;;;;;103829;1291;545823;-72
2023/12/13 01:40:20;;;;;;;24.10;11.50;;;;;;;;;;103832;1294;545066;-72
2023/12/13 01:43:57;;;;;;;22.40;10.50;;;;;;;;;;103805;1296;545534;-72
2023/12/13 01:47:36;;;;;;;23.70;11.20;;;;;;;;;;103795;1290;545433;-77
2023/12/13 01:51:13;;;;;;;26.70;11.80;;;;;;;;;;103852;1292;545755;-72
2023/12/13 01:54:50;;;;;;;29.00;12.60;;;;;;;;;;103831;1292;545410;-73
2023/12/13 01:58:28;;;;;;;31.30;12.80;;;;;;;;;;103809;1292;544936;-78
2023/12/13 02:02:06;;;;;;;30.20;11.80;;;;;;;;;;103798;1291;545186;-73
2023/12/13 02:05:44;;;;;;;27.70;11.30;;;;;;;;;;103788;1291;545416;-71
2023/12/13 02:09:20;;;;;;;23.40;10.10;;;;;;;;;;103719;1291;545899;-72
2023/12/13 02:12:57;;;;;;;25.00;10.20;;;;;;;;;;103793;1290;544862;-72
2023/12/13 02:16:36;;;;;;;20.20;9.20;;;;;;;;;;103825;1291;544923;-72
2023/12/13 02:20:12;;;;;;;19.60;8.90;;;;;;;;;;103600;1299;545618;-73
2023/12/13 02:23:53;;;;;;;20.10;9.30;;;;;;;;;;103829;1292;544869;-72
2023/12/13 02:27:29;;;;;;;24.00;10.60;;;;;;;;;;103639;1294;546495;-73
2023/12/13 02:31:04;;;;;;;22.90;9.30;;;;;;;;;;103829;1292;545012;-72
2023/12/13 02:34:42;;;;;;;21.40;9.60;;;;;;;;;;103714;1291;544765;-71
2023/12/13 02:38:20;;;;;;;19.60;8.60;;;;;;;;;;103840;1292;545113;-70
2023/12/13 02:41:57;;;;;;;19.10;8.00;;;;;;;;;;103778;1289;544721;-72
2023/12/13 02:45:35;;;;;;;22.00;8.40;;;;;;;;;;103805;1292;544972;-73
2023/12/13 02:49:12;;;;;;;22.40;9.90;;;;;;;;;;103814;1289;544723;-78
2023/12/13 02:52:50;;;;;;;23.40;10.40;;;;;;;;;;103648;1292;544984;-72
2023/12/13 02:56:23;;;;;;;23.90;10.00;;;;;;;;;;103878;1289;545342;-78
2023/12/13 03:00:05;;;;;;;19.80;8.60;;;;;;;;;;103735;1291;545614;-72
2023/12/13 03:03:41;;;;;;;22.50;8.90;;;;;;;;;;103816;1289;545098;-73
2023/12/13 03:07:19;;;;;;;18.90;8.90;;;;;;;;;;103828;1295;545809;-76
2023/12/13 03:10:53;;;;;;;19.50;8.30;;;;;;;;;;104051;1292;545988;-73
2023/12/13 03:14:37;;;;;;;14.90;7.00;;;;;;;;;;103817;1289;545171;-74
2023/12/13 03:18:12;;;;;;;14.70;6.90;;;;;;;;;;103943;1288;544800;-77
2023/12/13 03:21:49;;;;;;;17.10;8.30;;;;;;;;;;103849;1292;544855;-76
2023/12/13 03:25:26;;;;;;;19.00;8.60;;;;;;;;;;103796;1289;545521;-72
2023/12/13 03:29:04;;;;;;;20.10;9.40;;;;;;;;;;103811;1290;544945;-77
2023/12/13 03:32:42;;;;;;;20.10;9.40;;;;;;;;;;103642;1291;544994;-76
2023/12/13 03:36:21;;;;;;;17.50;8.30;;;;;;;;;;103820;1290;547891;-76
2023/12/13 03:39:56;;;;;;;16.40;7.80;;;;;;;;;;104496;1288;544757;-75
2023/12/13 03:43:34;;;;;;;17.60;7.60;;;;;;;;;;103848;1292;545913;-72
2023/12/13 03:47:11;;;;;;;18.90;8.10;;;;;;;;;;104677;1282;544722;-74
2023/12/13 03:50:49;;;;;;;16.40;6.50;;;;;;;;;;103861;1292;544994;-76
2023/12/13 03:54:22;;;;;;;15.50;6.60;;;;;;;;;;103887;1289;544878;-72
2023/12/13 03:58:04;;;;;;;19.90;8.40;;;;;;;;;;104053;1286;544820;-73
2023/12/13 04:01:41;;;;;;;19.30;7.90;;;;;;;;;;103899;1292;545933;-71
2023/12/13 04:05:20;;;;;;;15.40;6.40;;;;;;;;;;103847;1289;544770;-72
2023/12/13 04:08:56;;;;;;;13.10;5.50;;;;;;;;;;103820;1290;545528;-71
2023/12/13 04:12:34;;;;;;;14.80;5.70;;;;;;;;;;103802;1289;545704;-72
2023/12/13 04:16:11;;;;;;;15.10;5.90;;;;;;;;;;104566;1282;545938;-72
2023/12/13 04:19:48;;;;;;;15.50;8.20;;;;;;;;;;103849;1289;544953;-73
2023/12/13 04:23:27;;;;;;;15.30;7.80;;;;;;;;;;103809;1289;544763;-75
2023/12/13 04:27:04;;;;;;;15.00;6.40;;;;;;;;;;103694;1295;545028;-76
2023/12/13 04:30:42;;;;;;;13.70;5.70;;;;;;;;;;103748;1289;545823;-79
2023/12/13 04:34:19;;;;;;;13.10;5.30;;;;;;;;;;103765;1293;545143;-72
2023/12/13 04:37:52;;;;;;;11.90;4.80;;;;;;;;;;104015;1289;544771;-77
2023/12/13 04:41:35;;;;;;;11.70;5.30;;;;;;;;;;104138;1285;544971;-73
2023/12/13 04:45:11;;;;;;;10.80;5.70;;;;;;;;;;103881;1288;545261;-72
2023/12/13 04:48:48;;;;;;;12.00;5.50;;;;;;;;;;103980;1288;544729;-73
2023/12/13 04:52:26;;;;;;;13.50;5.80;;;;;;;;;;103794;1289;545070;-72
2023/12/13 04:56:06;;;;;;;14.90;7.00;;;;;;;;;;103799;1291;544856;-72
2023/12/13 04:59:41;;;;;;;12.30;6.60;;;;;;;;;;103788;1291;544979;-71
2023/12/13 05:03:18;;;;;;;14.30;6.60;;;;;;;;;;103790;1289;544987;-73
2023/12/13 05:06:56;;;;;;;13.70;6.00;;;;;;;;;;103893;1289;545394;-75
2023/12/13 05:10:33;;;;;;;12.50;5.70;;;;;;;;;;104519;1286;544908;-78
2023/12/13 05:14:10;;;;;;;12.00;5.50;;;;;;;;;;103803;1289;545257;-74
2023/12/13 05:17:48;;;;;;;13.50;6.00;;;;;;;;;;103922;1288;544851;-78
2023/12/13 05:21:26;;;;;;;13.40;6.70;;;;;;;;;;103618;1294;544972;-72
2023/12/13 05:25:03;;;;;;;14.00;6.20;;;;;;;;;;103879;1289;545604;-79
2023/12/13 05:28:43;;;;;;;15.50;6.50;;;;;;;;;;103956;1288;544983;-72
2023/12/13 05:32:18;;;;;;;16.10;8.70;;;;;;;;;;103808;1291;545712;-75
2023/12/13 05:35:55;;;;;;;18.00;9.00;;;;;;;;;;104146;1286;544988;-71
2023/12/13 05:39:53;;;;;;;20.60;9.60;;;;;;;;;;103790;1300;548080;-80
2023/12/13 05:43:10;;;;;;;19.00;8.20;;;;;;;;;;104293;1285;545834;-72
2023/12/13 05:46:47;;;;;;;14.00;6.60;;;;;;;;;;103817;1289;544791;-73
2023/12/13 05:50:25;;;;;;;15.70;7.60;;;;;;;;;;103819;1292;545044;-71
2023/12/13 05:54:03;;;;;;;15.90;8.00;;;;;;;;;;103754;1293;544737;-79
2023/12/13 05:57:37;;;;;;;16.30;8.00;;;;;;;;;;104040;1287;544593;-78
2023/12/13 06:01:17;;;;;;;15.20;7.30;;;;;;;;;;103634;1295;545733;-79
2023/12/13 06:04:55;;;;;;;20.00;9.30;;;;;;;;;;103616;1298;545450;-72
2023/12/13 06:08:32;;;;;;;21.20;10.30;;;;;;;;;;103850;1292;544986;-72
2023/12/13 06:12:11;;;;;;;18.90;9.60;;;;;;;;;;103765;1290;544956;-75
2023/12/13 06:15:48;;;;;;;15.50;7.90;;;;;;;;;;103874;1292;544956;-72
2023/12/13 06:19:29;;;;;;;15.90;8.20;;;;;;;;;;103818;1292;544871;-77
2023/12/13 06:23:02;;;;;;;13.20;6.60;;;;;;;;;;104416;1283;545049;-76
2023/12/13 06:26:40;;;;;;;15.50;7.80;;;;;;;;;;104046;1289;544747;-72
2023/12/13 06:30:17;;;;;;;16.80;8.80;;;;;;;;;;103777;1289;545048;-72
2023/12/13 06:34:14;;;;;;;14.70;7.80;;;;;;;;;;103689;1293;547960;-80
2023/12/13 06:37:52;;;;;;;13.10;6.90;;;;;;;;;;103765;1289;547984;-77
2023/12/13 06:41:10;;;;;;;13.50;7.80;;;;;;;;;;104086;1291;545020;-79
2023/12/13 06:44:47;;;;;;;13.70;7.30;;;;;;;;;;104104;1286;545028;-72
2023/12/13 06:48:25;;;;;;;14.60;8.30;;;;;;;;;;103820;1292;545420;-78
2023/12/13 06:52:02;;;;;;;17.90;10.60;;;;;;;;;;103853;1292;544745;-73
2023/12/13 06:55:41;;;;;;;18.30;10.60;;;;;;;;;;103672;1292;544914;-80
2023/12/13 06:59:18;;;;;;;16.10;9.40;;;;;;;;;;103568;1298;546049;-78
2023/12/13 07:02:54;;;;;;;13.20;7.50;;;;;;;;;;103730;1289;544792;-79
2023/12/13 07:06:32;;;;;;;15.30;8.60;;;;;;;;;;103801;1292;546019;-79
2023/12/13 07:10:09;;;;;;;14.90;8.30;;;;;;;;;;103749;1291;545004;-79
2023/12/13 07:13:47;;;;;;;18.10;9.90;;;;;;;;;;103842;1292;545049;-72
2023/12/13 07:17:24;;;;;;;19.30;9.90;;;;;;;;;;103885;1299;545719;-76
2023/12/13 07:21:03;;;;;;;18.90;10.70;;;;;;;;;;103875;1289;544753;-72
2023/12/13 07:24:39;;;;;;;16.90;10.20;;;;;;;;;;103793;1291;545135;-79
2023/12/13 07:28:17;;;;;;;15.20;9.80;;;;;;;;;;103842;1291;545599;-79
2023/12/13 07:31:54;;;;;;;16.10;9.00;;;;;;;;;;103822;1290;544931;-71
2023/12/13 07:35:28;;;;;;;15.60;9.20;;;;;;;;;;104320;1289;545104;-80
2023/12/13 07:39:10;;;;;;;17.20;9.90;;;;;;;;;;103868;1289;544996;-79
2023/12/13 07:42:47;;;;;;;14.40;9.30;;;;;;;;;;103812;1291;546046;-73
2023/12/13 07:46:30;;;;;;;15.00;8.90;;;;;;;;;;103458;1294;547808;-71
2023/12/13 07:50:03;;;;;;;14.10;8.00;;;;;;;;;;103850;1292;545399;-72
2023/12/13 07:53:38;;;;;;;14.00;8.70;;;;;;;;;;103829;1289;544911;-77
2023/12/13 07:57:16;;;;;;;16.40;9.50;;;;;;;;;;103836;1292;545155;-77
2023/12/13 08:00:54;;;;;;;15.40;8.80;;;;;;;;;;103792;1289;544986;-77
2023/12/13 08:04:32;;;;;;;14.50;8.40;;;;;;;;;;103580;1293;545346;-78
2023/12/13 08:08:09;;;;;;;17.70;11.00;;;;;;;;;;104109;1288;545053;-76
2023/12/13 08:11:49;;;;;;;20.00;12.30;;;;;;;;;;103818;1289;544829;-80
2023/12/13 08:15:23;;;;;;;18.80;12.70;;;;;;;;;;103829;1290;544953;-73
2023/12/13 08:19:01;;;;;;;27.50;17.70;;;;;;;;;;104055;1289;545745;-71
2023/12/13 08:22:39;;;;;;;36.10;23.00;;;;;;;;;;103657;1294;545089;-71
2023/12/13 08:26:17;;;;;;;33.40;20.20;;;;;;;;;;104097;1291;545000;-82
2023/12/13 08:29:54;;;;;;;28.30;18.30;;;;;;;;;;103879;1290;545068;-77
2023/12/13 08:33:27;;;;;;;33.60;21.90;;;;;;;;;;103968;1289;544898;-75
2023/12/13 08:37:09;;;;;;;28.10;18.40;;;;;;;;;;103778;1292;544903;-71
2023/12/13 08:40:42;;;;;;;25.50;17.40;;;;;;;;;;104621;1282;544819;-72
2023/12/13 08:44:24;;;;;;;21.30;16.20;;;;;;;;;;103728;1292;545507;-71
2023/12/13 08:48:01;;;;;;;18.90;14.30;;;;;;;;;;103796;1289;545638;-74
2023/12/13 08:51:38;;;;;;;19.10;13.20;;;;;;;;;;103965;1289;545176;-74
2023/12/13 08:55:15;;;;;;;18.90;11.90;;;;;;;;;;103811;1292;544859;-74
2023/12/13 08:59:01;;;;;;;19.80;13.20;;;;;;;;;;103675;1291;546820;-74
2023/12/13 09:02:32;;;;;;;19.10;13.30;;;;;;;;;;103818;1291;545660;-73
2023/12/13 09:06:09;;;;;;;19.10;12.20;;;;;;;;;;103856;1292;544943;-79
2023/12/13 09:09:46;;;;;;;19.60;12.90;;;;;;;;;;103648;1294;545743;-77
2023/12/13 09:13:24;;;;;;;25.30;15.60;;;;;;;;;;104510;1282;544904;-78
2023/12/13 09:17:01;;;;;;;41.20;20.70;;;;;;;;;;103789;1295;545074;-72
2023/12/13 09:20:40;;;;;;;51.30;23.00;;;;;;;;;;104585;1283;544965;-76
2023/12/13 09:24:16;;;;;;;54.60;24.40;;;;;;;;;;103819;1289;544810;-76
2023/12/13 09:27:53;;;;;;;55.50;26.00;;;;;;;;;;103934;1289;546024;-71
2023/12/13 09:31:31;;;;;;;53.90;32.10;;;;;;;;;;103870;1290;544938;-71
2023/12/13 09:35:08;;;;;;;43.50;25.60;;;;;;;;;;103544;1295;545436;-72
2023/12/13 09:38:46;;;;;;;35.60;21.70;;;;;;;;;;104140;1289;545031;-76
2023/12/13 09:42:23;;;;;;;33.40;19.90;;;;;;;;;;103801;1291;545910;-80
2023/12/13 09:46:00;;;;;;;38.30;23.10;;;;;;;;;;103664;1291;546013;-78
2023/12/13 09:49:38;;;;;;;46.10;26.90;;;;;;;;;;104753;1280;544960;-77
2023/12/13 09:53:16;;;;;;;50.00;27.90;;;;;;;;;;103721;1289;545056;-72
2023/12/13 09:56:52;;;;;;;47.80;26.40;;;;;;;;;;104014;1301;545177;-77
2023/12/13 10:00:26;;;;;;;46.60;26.80;;;;;;;;;;103938;1289;544861;-72
2023/12/13 10:04:08;;;;;;;48.30;29.00;;;;;;;;;;103795;1292;544925;-73
2023/12/13 10:07:45;;;;;;;51.30;30.00;;;;;;;;;;104051;1289;545053;-71
2023/12/13 10:11:23;;;;;;;41.40;24.10;;;;;;;;;;103806;1292;544847;-72
2023/12/13 10:15:13;;;;;;;39.60;22.20;;;;;;;;;;104060;1286;545046;-77
2023/12/13 10:18:40;;;;;;;42.20;23.80;;;;;;;;;;103769;1292;544831;-79
2023/12/13 10:22:18;;;;;;;53.20;27.80;;;;;;;;;;103760;1291;545487;-78
2023/12/13 10:25:52;;;;;;;57.40;29.00;;;;;;;;;;103782;1291;545236;-77
2023/12/13 10:29:30;;;;;;;45.00;25.10;;;;;;;;;;103711;1292;545010;-78
2023/12/13 10:33:08;;;;;;;43.30;23.10;;;;;;;;;;103879;1291;545129;-77
2023/12/13 10:36:46;;;;;;;46.70;27.90;;;;;;;;;;103542;1296;545378;-71
2023/12/13 10:40:20;;;;;;;46.30;30.10;;;;;;;;;;104190;1290;544870;-73
2023/12/13 10:43:57;;;;;;;43.80;29.40;;;;;;;;;;103857;1292;544774;-78
2023/12/13 10:48:00;;;;;;;30.20;19.90;;;;;;;;;;103865;1292;547992;-71
2023/12/13 10:51:15;;;;;;;26.70;18.30;;;;;;;;;;103635;1291;545474;-71
2023/12/13 10:54:58;;;;;;;25.20;17.00;;;;;;;;;;103787;1289;548189;-70
2023/12/13 10:58:30;;;;;;;24.60;17.40;;;;;;;;;;103573;1295;545176;-71
2023/12/13 11:02:08;;;;;;;22.80;16.30;;;;;;;;;;103871;1289;545022;-71
2023/12/13 11:05:45;;;;;;;25.80;16.60;;;;;;;;;;103783;1290;545036;-71
2023/12/13 11:09:23;;;;;;;29.00;18.60;;;;;;;;;;103584;1291;545090;-72
2023/12/13 11:13:01;;;;;;;31.20;20.70;;;;;;;;;;103882;1289;544979;-76
2023/12/13 11:16:42;;;;;;;34.40;21.50;;;;;;;;;;103806;1289;544786;-74
2023/12/13 11:20:15;;;;;;;37.10;22.80;;;;;;;;;;104188;1285;545054;-71
2023/12/13 11:23:56;;;;;;;32.40;19.90;;;;;;;;;;103800;1292;545994;-72
2023/12/13 11:27:31;;;;;;;30.50;19.80;;;;;;;;;;103862;1301;545358;-72
2023/12/13 11:31:10;;;;;;;31.60;19.40;;;;;;;;;;103753;1289;544968;-71
2023/12/13 11:34:44;;;;;;;28.50;18.30;;;;;;;;;;103861;1288;546128;-72
2023/12/13 11:38:22;;;;;;;28.90;20.40;;;;;;;;;;103556;1296;545620;-75
2023/12/13 11:42:00;;;;;;;31.40;18.60;;;;;;;;;;103902;1288;544994;-71
2023/12/13 11:45:46;;;;;;;29.50;18.60;;;;;;;;;;103779;1290;545000;-75
2023/12/13 11:49:14;;;;;;;33.20;21.20;;;;;;;;;;103791;1290;545002;-78
2023/12/13 11:52:51;;;;;;;36.80;23.20;;;;;;;;;;103502;1295;545624;-74
2023/12/13 11:56:29;;;;;;;43.50;26.00;;;;;;;;;;103763;1294;544611;-76
2023/12/13 12:00:07;;;;;;;42.70;25.60;;;;;;;;;;103689;1292;545090;-79
2023/12/13 12:03:44;;;;;;;41.50;26.40;;;;;;;;;;103720;1291;545679;-78
2023/12/13 12:07:21;;;;;;;42.40;25.80;;;;;;;;;;103866;1292;544821;-79
2023/12/13 12:10:59;;;;;;;32.70;19.50;;;;;;;;;;103756;1289;545774;-76
2023/12/13 12:14:36;;;;;;;34.00;18.50;;;;;;;;;;103763;1291;544907;-71
2023/12/13 12:18:13;;;;;;;63.80;31.90;;;;;;;;;;103780;1295;544861;-75
2023/12/13 12:21:53;;;;;;;51.40;27.60;;;;;;;;;;103842;1292;544729;-73
2023/12/13 12:25:29;;;;;;;46.60;26.40;;;;;;;;;;103808;1291;545018;-76
2023/12/13 12:29:02;;;;;;;39.60;23.10;;;;;;;;;;103846;1296;545104;-73
2023/12/13 12:32:40;;;;;;;27.00;16.00;;;;;;;;;;103813;1289;545655;-74
2023/12/13 12:36:21;;;;;;;28.30;17.90;;;;;;;;;;103913;1288;546375;-76
2023/12/13 12:39:58;;;;;;;39.70;23.70;;;;;;;;;;103796;1289;544980;-79
2023/12/13 12:43:37;;;;;;;58.20;30.40;;;;;;;;;;103834;1290;545118;-72
2023/12/13 12:47:13;;;;;;;55.50;28.90;;;;;;;;;;103943;1289;544792;-72
2023/12/13 12:50:51;;;;;;;38.10;21.10;;;;;;;;;;103759;1295;545633;-78
2023/12/13 12:54:29;;;;;;;32.60;19.50;;;;;;;;;;103823;1289;544815;-73
2023/12/13 12:58:06;;;;;;;23.20;16.00;;;;;;;;;;103953;1292;545356;-80
2023/12/13 13:01:43;;;;;;;23.30;15.40;;;;;;;;;;103988;1289;545537;-78
2023/12/13 13:05:21;;;;;;;27.10;17.30;;;;;;;;;;103757;1295;544920;-71
2023/12/13 13:09:00;;;;;;;26.60;17.90;;;;;;;;;;103939;1292;545377;-72
2023/12/13 13:12:40;;;;;;;28.90;20.50;;;;;;;;;;103774;1289;544916;-74
2023/12/13 13:16:14;;;;;;;30.40;21.20;;;;;;;;;;103733;1292;545723;-80
2023/12/13 13:19:51;;;;;;;28.00;19.30;;;;;;;;;;103901;1299;545459;-78
2023/12/13 13:23:29;;;;;;;28.80;21.70;;;;;;;;;;103649;1291;544852;-73
2023/12/13 13:27:06;;;;;;;32.20;24.20;;;;;;;;;;103785;1289;545051;-73
2023/12/13 13:30:39;;;;;;;35.90;25.20;;;;;;;;;;103990;1287;545108;-76
2023/12/13 13:34:20;;;;;;;40.00;28.40;;;;;;;;;;104556;1282;545159;-79
2023/12/13 13:37:58;;;;;;;36.60;25.80;;;;;;;;;;103924;1289;544906;-77
2023/12/13 13:41:37;;;;;;;37.20;25.40;;;;;;;;;;103725;1291;546240;-75
2023/12/13 13:45:13;;;;;;;38.20;26.70;;;;;;;;;;103573;1293;545013;-75
2023/12/13 13:48:52;;;;;;;38.80;27.00;;;;;;;;;;103782;1291;545920;-78
2023/12/13 13:52:27;;;;;;;41.60;28.30;;;;;;;;;;103901;1289;545115;-73
2023/12/13 13:56:06;;;;;;;61.90;39.30;;;;;;;;;;103870;1288;544807;-73
2023/12/13 13:59:43;;;;;;;75.60;48.70;;;;;;;;;;103733;1292;544746;-78
2023/12/13 14:03:20;;;;;;;85.00;56.00;;;;;;;;;;103826;1289;545296;-75
2023/12/13 14:06:58;;;;;;;84.20;54.80;;;;;;;;;;104566;1288;544776;-75
2023/12/13 14:10:35;;;;;;;77.60;48.70;;;;;;;;;;103633;1293;545003;-77
2023/12/13 14:14:13;;;;;;;71.20;46.90;;;;;;;;;;103892;1294;545116;-73
2023/12/13 14:17:50;;;;;;;61.80;42.40;;;;;;;;;;104527;1282;544969;-77
2023/12/13 14:21:27;;;;;;;68.30;43.60;;;;;;;;;;103686;1291;545263;-73
2023/12/13 14:25:05;;;;;;;50.40;35.00;;;;;;;;;;103871;1289;545500;-77
2023/12/13 14:28:38;;;;;;;47.90;31.60;;;;;;;;;;104001;1289;544848;-72
2023/12/13 14:32:16;;;;;;;41.70;28.70;;;;;;;;;;105731;1289;544748;-72
2023/12/13 14:35:57;;;;;;;50.40;32.30;;;;;;;;;;103897;1289;544879;-81
2023/12/13 14:39:31;;;;;;;47.50;31.10;;;;;;;;;;104414;1288;544724;-73
2023/12/13 14:43:13;;;;;;;42.80;28.40;;;;;;;;;;104118;1286;545881;-76
2023/12/13 14:46:50;;;;;;;51.40;32.60;;;;;;;;;;103676;1292;544984;-73
2023/12/13 14:50:28;;;;;;;47.00;31.60;;;;;;;;;;103811;1289;545072;-71
2023/12/13 14:54:05;;;;;;;48.30;33.40;;;;;;;;;;103867;1292;545025;-75
2023/12/13 14:57:43;;;;;;;48.50;32.80;;;;;;;;;;103768;1291;544969;-73
2023/12/13 15:01:20;;;;;;;135.20;58.10;;;;;;;;;;103825;1289;545547;-78
2023/12/13 15:05:01;;;;;;;121.50;55.50;;;;;;;;;;103932;1289;545062;-71
2023/12/13 15:08:35;;;;;;;57.10;33.70;;;;;;;;;;103800;1290;545444;-70
2023/12/13 15:12:12;;;;;;;61.30;36.30;;;;;;;;;;103584;1292;545965;-76
2023/12/13 15:15:49;;;;;;;68.00;40.20;;;;;;;;;;103841;1292;544874;-72
2023/12/13 15:19:30;;;;;;;64.10;38.70;;;;;;;;;;103935;1288;545572;-72
2023/12/13 15:23:04;;;;;;;104.40;58.90;;;;;;;;;;104106;1290;544866;-74
2023/12/13 15:26:43;;;;;;;100.20;60.30;;;;;;;;;;104106;1289;544953;-70
2023/12/13 15:30:20;;;;;;;76.70;51.50;;;;;;;;;;103859;1295;544805;-76
2023/12/13 15:33:57;;;;;;;65.00;43.80;;;;;;;;;;103818;1292;545835;-76
2023/12/13 15:37:35;;;;;;;62.50;42.00;;;;;;;;;;103766;1296;544844;-72
2023/12/13 15:41:12;;;;;;;56.10;36.60;;;;;;;;;;103826;1294;544832;-75
2023/12/13 15:44:49;;;;;;;44.90;31.50;;;;;;;;;;103996;1289;545371;-72
2023/12/13 15:48:26;;;;;;;39.90;27.70;;;;;;;;;;103885;1288;544852;-76
2023/12/13 15:52:02;;;;;;;37.00;25.60;;;;;;;;;;104549;1288;545332;-77
2023/12/13 15:55:38;;;;;;;46.50;31.20;;;;;;;;;;104669;1284;544973;-74
2023/12/13 15:59:20;;;;;;;39.30;27.70;;;;;;;;;;103938;1292;545663;-71
2023/12/13 16:02:56;;;;;;;41.50;28.40;;;;;;;;;;103894;1290;544880;-71
2023/12/13 16:06:34;;;;;;;46.80;32.40;;;;;;;;;;103827;1292;545078;-75
2023/12/13 16:10:13;;;;;;;46.60;30.40;;;;;;;;;;103927;1288;545938;-71
2023/12/13 16:13:49;;;;;;;44.00;28.60;;;;;;;;;;103946;1296;545006;-74
2023/12/13 16:17:28;;;;;;;43.20;29.80;;;;;;;;;;103876;1289;545689;-75
2023/12/13 16:21:04;;;;;;;44.90;30.20;;;;;;;;;;103901;1289;545804;-78
2023/12/13 16:24:37;;;;;;;47.40;29.90;;;;;;;;;;103792;1292;544936;-74
2023/12/13 16:28:19;;;;;;;47.80;33.10;;;;;;;;;;103784;1289;544894;-71
2023/12/13 16:31:56;;;;;;;47.40;32.70;;;;;;;;;;103693;1291;545297;-74
2023/12/13 16:35:34;;;;;;;49.80;37.10;;;;;;;;;;103848;1291;544776;-71
2023/12/13 16:39:11;;;;;;;59.20;41.80;;;;;;;;;;103821;1295;544961;-72
2023/12/13 16:42:49;;;;;;;59.00;40.70;;;;;;;;;;104052;1289;545078;-72
2023/12/13 16:46:27;;;;;;;75.80;47.30;;;;;;;;;;103841;1292;544770;-71
2023/12/13 16:50:04;;;;;;;84.60;53.40;;;;;;;;;;104202;1292;544954;-71
2023/12/13 16:53:41;;;;;;;70.60;48.50;;;;;;;;;;103876;1292;545463;-71
2023/12/13 16:57:20;;;;;;;96.60;59.00;;;;;;;;;;103903;1292;545604;-71
2023/12/13 17:00:56;;;;;;;90.80;57.80;;;;;;;;;;104153;1286;545901;-71
2023/12/13 17:04:34;;;;;;;96.30;58.80;;;;;;;;;;103822;1292;545102;-71
2023/12/13 17:08:11;;;;;;;102.00;63.60;;;;;;;;;;103862;1290;544855;-71
2023/12/13 17:11:49;;;;;;;112.10;73.00;;;;;;;;;;103855;1290;544690;-71
2023/12/13 17:15:26;;;;;;;110.00;66.50;;;;;;;;;;103712;1291;544966;-75
2023/12/13 17:19:05;;;;;;;107.10;65.10;;;;;;;;;;103764;1291;545321;-71
2023/12/13 17:22:37;;;;;;;103.20;65.30;;;;;;;;;;103857;1292;544943;-71
2023/12/13 17:26:19;;;;;;;154.00;91.10;;;;;;;;;;103865;1292;544934;-76
2023/12/13 17:29:56;;;;;;;130.30;78.40;;;;;;;;;;103780;1292;545346;-71
2023/12/13 17:33:34;;;;;;;83.50;51.50;;;;;;;;;;103630;1292;544928;-71
2023/12/13 17:37:13;;;;;;;77.90;48.10;;;;;;;;;;103517;1294;544939;-71
2023/12/13 17:40:48;;;;;;;75.60;45.80;;;;;;;;;;103724;1292;544884;-71
2023/12/13 17:44:25;;;;;;;95.80;66.20;;;;;;;;;;103759;1291;544947;-71
2023/12/13 17:48:03;;;;;;;130.30;70.90;;;;;;;;;;103829;1289;544885;-75
2023/12/13 17:51:41;;;;;;;84.90;51.10;;;;;;;;;;103746;1289;544797;-71
2023/12/13 17:55:18;;;;;;;82.80;51.10;;;;;;;;;;103732;1293;544970;-72
2023/12/13 17:58:55;;;;;;;74.30;51.30;;;;;;;;;;103744;1291;545149;-72
2023/12/13 18:02:35;;;;;;;112.50;65.30;;;;;;;;;;103748;1292;545626;-78
2023/12/13 18:06:16;;;;;;;98.30;54.70;;;;;;;;;;103742;1292;547943;-76
2023/12/13 18:09:49;;;;;;;75.80;43.00;;;;;;;;;;103581;1305;545960;-71
2023/12/13 18:13:25;;;;;;;57.00;33.80;;;;;;;;;;103795;1295;545075;-71
2023/12/13 18:17:03;;;;;;;55.00;35.20;;;;;;;;;;103552;1294;545700;-75
2023/12/13 18:20:36;;;;;;;44.40;30.20;;;;;;;;;;103956;1289;544972;-72
2023/12/13 18:24:18;;;;;;;64.50;41.50;;;;;;;;;;103726;1291;546026;-73
2023/12/13 18:27:55;;;;;;;67.00;41.90;;;;;;;;;;103671;1292;545177;-73
2023/12/13 18:31:40;;;;;;;64.70;44.90;;;;;;;;;;103774;1289;544874;-72
2023/12/13 18:35:10;;;;;;;57.00;38.10;;;;;;;;;;103778;1292;545012;-71
2023/12/13 18:38:47;;;;;;;52.70;35.40;;;;;;;;;;103781;1289;544850;-71
2023/12/13 18:42:24;;;;;;;41.40;26.00;;;;;;;;;;103749;1292;545073;-72
2023/12/13 18:46:02;;;;;;;60.10;34.50;;;;;;;;;;103770;1291;544812;-72
2023/12/13 18:49:40;;;;;;;56.60;34.90;;;;;;;;;;104645;1285;544836;-71
2023/12/13 18:53:17;;;;;;;72.80;40.60;;;;;;;;;;103807;1292;544956;-72
2023/12/13 18:56:55;;;;;;;91.70;45.80;;;;;;;;;;103964;1289;545681;-73
2023/12/13 19:00:33;;;;;;;105.80;51.20;;;;;;;;;;103787;1292;546228;-71
2023/12/13 19:04:10;;;;;;;86.10;46.80;;;;;;;;;;103656;1291;546784;-78
2023/12/13 19:07:48;;;;;;;106.50;55.60;;;;;;;;;;103662;1291;547968;-71
2023/12/13 19:11:24;;;;;;;77.30;42.80;;;;;;;;;;103735;1289;544608;-71
2023/12/13 19:14:59;;;;;;;65.60;38.90;;;;;;;;;;103839;1288;546311;-71
2023/12/13 19:18:39;;;;;;;62.40;38.40;;;;;;;;;;103487;1295;545071;-72
2023/12/13 19:22:16;;;;;;;80.70;54.60;;;;;;;;;;103638;1291;545714;-71
2023/12/13 19:25:56;;;;;;;64.70;42.90;;;;;;;;;;103730;1292;545008;-71
2023/12/13 19:29:28;;;;;;;44.60;29.50;;;;;;;;;;103882;1294;545470;-78
2023/12/13 19:33:15;;;;;;;41.90;27.80;;;;;;;;;;103730;1292;547845;-71
2023/12/13 19:36:47;;;;;;;39.00;26.70;;;;;;;;;;103833;1289;544810;-71
2023/12/13 19:40:20;;;;;;;40.30;27.90;;;;;;;;;;103922;1292;544804;-71
2023/12/13 19:44:01;;;;;;;37.20;23.30;;;;;;;;;;104242;1288;544926;-72
2023/12/13 19:47:39;;;;;;;29.50;20.90;;;;;;;;;;104719;1283;545539;-72
2023/12/13 19:51:17;;;;;;;34.50;21.80;;;;;;;;;;103802;1292;544933;-71
2023/12/13 19:54:53;;;;;;;28.10;19.00;;;;;;;;;;103865;1289;544980;-71
2023/12/13 19:58:31;;;;;;;28.80;20.90;;;;;;;;;;103793;1289;544878;-70
2023/12/13 20:02:11;;;;;;;75.00;45.90;;;;;;;;;;104021;1288;546029;-71
2023/12/13 20:05:52;;;;;;;73.70;37.70;;;;;;;;;;103728;1291;545236;-77
2023/12/13 20:09:24;;;;;;;74.60;39.00;;;;;;;;;;104154;1287;546017;-72
2023/12/13 20:13:05;;;;;;;95.50;48.30;;;;;;;;;;103788;1292;545478;-72
2023/12/13 20:16:38;;;;;;;106.40;54.10;;;;;;;;;;103657;1292;544888;-72
2023/12/13 20:20:16;;;;;;;98.50;48.50;;;;;;;;;;103841;1289;544752;-79
2023/12/13 20:23:53;;;;;;;86.60;43.80;;;;;;;;;;104711;1283;544791;-70
2023/12/13 20:27:38;;;;;;;37.80;23.50;;;;;;;;;;103767;1292;546410;-77
2023/12/13 20:31:09;;;;;;;32.20;19.40;;;;;;;;;;103812;1295;544991;-72